Time;durP1;ratioP1;P1;durP2;ratioP2;P2;SDS_P1;SDS_P2;PMS_P1;PMS_P2;Temp;Humidity;BMP_temperature;BMP_pressure;BME280_temperature;BME280_humidity;BME280_pressure;Samples;Min_cycle;Max_cycle;Signal;HPM_P1;HPM_P2
2022/08/06 00:01:52;;;;;;;;;;;;;;;;;;4968971;28;19981;-77
2022/08/06 00:04:22;;;;;;;;;;;24.60;91.40;;;;;;4986149;28;19930;-77
2022/08/06 00:06:48;;;;;;;;;;;24.60;83.30;;;;;;4966333;28;19949;-77
2022/08/06 00:09:15;;;;;;;;;;;24.60;83.30;;;;;;4964283;28;20480;-77
2022/08/06 00:11:42;;;;;;;;;;;24.50;83.30;;;;;;4981821;28;19926;-76
2022/08/06 00:14:09;;;;;;;;;;;24.50;83.40;;;;;;4984591;28;20789;-77
2022/08/06 00:16:36;;;;;;;;;;;24.50;83.40;;;;;;4981833;28;20028;-77
2022/08/06 00:19:03;;;;;;;;;;;24.50;83.60;;;;;;4990719;28;20396;-77
2022/08/06 00:21:32;;;;;;;;;;;24.40;83.70;;;;;;4981903;28;20128;-77
2022/08/06 00:23:59;;;;;;;;;;;24.40;83.80;;;;;;4979787;28;19926;-77
2022/08/06 00:26:25;;;;;;;;;;;24.40;83.80;;;;;;4988165;28;20363;-78
2022/08/06 00:28:52;;;;;;;;;;;24.40;83.90;;;;;;4971468;28;19934;-78
2022/08/06 00:31:20;;;;;;;;;;;24.30;83.40;;;;;;4985591;28;20438;-76
2022/08/06 00:33:46;;;;;;;;;;;24.30;84.00;;;;;;4977998;28;20032;-77
2022/08/06 00:36:13;;;;;;;;;;;24.30;84.20;;;;;;4985693;28;19926;-77
2022/08/06 00:38:42;;;;;;;;;;;24.20;84.30;;;;;;4969023;28;19941;-77
2022/08/06 00:41:08;;;;;;;;;;;24.20;84.20;;;;;;4978746;28;19953;-76
2022/08/06 00:43:35;;;;;;;;;;;24.20;84.10;;;;;;4984889;28;20068;-76
2022/08/06 00:46:02;;;;;;;;;;;24.20;84.00;;;;;;4981335;28;19977;-76
2022/08/06 00:48:29;;;;;;;;;;;24.20;84.00;;;;;;4984938;28;20398;-76
2022/08/06 00:50:56;;;;;;;;;;;24.10;83.80;;;;;;4981734;28;19930;-76
2022/08/06 00:53:23;;;;;;;;;;;24.10;83.70;;;;;;4986802;28;19930;-75
2022/08/06 00:55:51;;;;;;;;;;;24.10;83.60;;;;;;4963438;28;19993;-76
2022/08/06 00:58:18;;;;;;;;;;;24.10;83.30;;;;;;4986899;28;19969;-76
2022/08/06 01:00:45;;;;;;;;;;;24.00;83.00;;;;;;4981208;28;19926;-75
2022/08/06 01:03:16;;;;;;;;;;;24.00;82.80;;;;;;4966912;28;20013;-76
2022/08/06 01:05:43;;;;;;;;;;;23.90;82.50;;;;;;4983130;28;20443;-75
2022/08/06 01:08:12;;;;;;;;;;;23.90;82.30;;;;;;4985031;28;20308;-75
2022/08/06 01:10:39;;;;;;;;;;;23.90;82.30;;;;;;4986950;28;20444;-76
2022/08/06 01:13:07;;;;;;;;;;;23.90;82.30;;;;;;4983272;28;19940;-75
2022/08/06 01:15:35;;;;;;;;;;;23.80;81.60;;;;;;4986557;28;19976;-76
2022/08/06 01:18:03;;;;;;;;;;;23.80;81.90;;;;;;4987007;28;20008;-76
2022/08/06 01:20:40;;;;;;;;;;;23.80;82.00;;;;;;4976623;28;19926;-75
2022/08/06 01:23:21;;;;;;;;;;;23.70;81.70;;;;;;4986737;28;21701;-77
2022/08/06 01:25:55;;;;;;;;;;;23.70;81.60;;;;;;4981714;28;19933;-76
2022/08/06 01:28:25;;;;;;;;;;;23.70;81.50;;;;;;4987138;28;19980;-77
2022/08/06 01:30:54;;;;;;;;;;;23.60;81.20;;;;;;4979248;28;20307;-75
2022/08/06 01:33:23;;;;;;;;;;;23.60;81.20;;;;;;4981752;28;20009;-76
2022/08/06 01:35:51;;;;;;;;;;;23.60;81.10;;;;;;4977881;28;19985;-76
2022/08/06 01:38:23;;;;;;;;;;;23.50;81.00;;;;;;4983411;28;19925;-74
2022/08/06 01:40:50;;;;;;;;;;;23.50;81.00;;;;;;4969183;28;19926;-76
2022/08/06 01:43:20;;;;;;;;;;;23.50;81.20;;;;;;5007824;23;20007;-96
2022/08/06 01:45:50;;;;;;;;;;;23.40;80.90;;;;;;4999782;28;19981;-95
2022/08/06 01:48:18;;;;;;;;;;;23.40;81.00;;;;;;5011119;28;19930;-95
2022/08/06 01:50:57;;;;;;;;;;;23.30;80.90;;;;;;5005539;28;19937;-93
2022/08/06 01:53:43;;;;;;;;;;;23.30;80.70;;;;;;5010160;28;19976;-95
2022/08/06 01:56:11;;;;;;;;;;;23.30;80.70;;;;;;5010702;28;19914;-94
2022/08/06 01:58:41;;;;;;;;;;;23.20;80.50;;;;;;5001798;28;19925;-95
2022/08/06 02:01:14;;;;;;;;;;;23.20;80.50;;;;;;4994252;28;19910;-93
2022/08/06 02:03:46;;;;;;;;;;;23.10;80.40;;;;;;4997872;28;19910;-96
2022/08/06 02:06:15;;;;;;;;;;;23.10;80.10;;;;;;5012859;28;19925;-95
2022/08/06 02:08:48;;;;;;;;;;;23.10;80.20;;;;;;5023650;22;19930;-76
2022/08/06 02:11:15;;;;;;;;;;;23.00;79.90;;;;;;5000297;28;19936;-76
2022/08/06 02:13:42;;;;;;;;;;;23.00;79.90;;;;;;5002537;28;20377;-75
2022/08/06 02:16:12;;;;;;;;;;;22.90;79.80;;;;;;5002847;28;19929;-75
2022/08/06 02:18:41;;;;;;;;;;;22.90;79.80;;;;;;5003930;28;20380;-75
2022/08/06 02:21:09;;;;;;;;;;;22.90;79.70;;;;;;5004476;28;20387;-76
2022/08/06 02:23:36;;;;;;;;;;;22.80;79.50;;;;;;4984290;28;20523;-77
2022/08/06 02:26:04;;;;;;;;;;;22.80;79.60;;;;;;4988118;28;19940;-75
2022/08/06 02:28:32;;;;;;;;;;;22.70;79.60;;;;;;4983623;28;19929;-77
2022/08/06 02:30:59;;;;;;;;;;;22.70;79.60;;;;;;5002857;28;20235;-75
2022/08/06 02:33:28;;;;;;;;;;;22.70;79.70;;;;;;4984827;28;20340;-76
2022/08/06 02:36:02;;;;;;;;;;;22.60;79.70;;;;;;4997191;28;20304;-76
2022/08/06 02:38:31;;;;;;;;;;;22.60;79.70;;;;;;5002167;28;20040;-75
2022/08/06 02:41:02;;;;;;;;;;;22.60;79.80;;;;;;5004942;28;19930;-76
2022/08/06 02:43:32;;;;;;;;;;;22.60;79.70;;;;;;5001609;28;19929;-75
2022/08/06 02:46:03;;;;;;;;;;;22.50;79.60;;;;;;4997054;28;20052;-75
2022/08/06 02:48:34;;;;;;;;;;;22.50;79.60;;;;;;5003690;28;19953;-76
2022/08/06 02:51:05;;;;;;;;;;;22.40;79.60;;;;;;5003358;28;19930;-77
2022/08/06 02:53:35;;;;;;;;;;;22.40;79.50;;;;;;4998858;28;19972;-76
2022/08/06 02:56:05;;;;;;;;;;;22.40;79.60;;;;;;5004310;28;19925;-75
2022/08/06 02:58:33;;;;;;;;;;;22.30;79.60;;;;;;5004647;28;20024;-76
2022/08/06 03:01:01;;;;;;;;;;;22.30;79.70;;;;;;4996252;28;20451;-75
2022/08/06 03:03:28;;;;;;;;;;;;;;;;;;5003561;28;20019;-77
2022/08/06 03:05:57;;;;;;;;;;;22.30;79.10;;;;;;5002849;28;20443;-77
2022/08/06 03:08:25;;;;;;;;;;;22.20;79.80;;;;;;4985094;28;20083;-76
2022/08/06 03:10:53;;;;;;;;;;;22.20;79.90;;;;;;4999045;28;19934;-76
2022/08/06 03:13:22;;;;;;;;;;;22.10;79.00;;;;;;5004831;28;20012;-77
2022/08/06 03:15:50;;;;;;;;;;;22.10;79.50;;;;;;5007039;28;19930;-77
2022/08/06 03:18:17;;;;;;;;;;;22.10;79.70;;;;;;5005389;28;20354;-75
2022/08/06 03:20:45;;;;;;;;;;;22.10;79.70;;;;;;5009079;28;19926;-75
2022/08/06 03:23:14;;;;;;;;;;;22.00;79.60;;;;;;5001043;28;20311;-74
2022/08/06 03:25:41;;;;;;;;;;;22.00;79.60;;;;;;4999857;28;19934;-76
2022/08/06 03:28:08;;;;;;;;;;;22.00;79.50;;;;;;5002158;28;19964;-75
2022/08/06 03:30:36;;;;;;;;;;;22.00;79.40;;;;;;5005932;28;20311;-74
2022/08/06 03:33:04;;;;;;;;;;;21.90;79.50;;;;;;5005140;28;20323;-76
2022/08/06 03:35:33;;;;;;;;;;;21.90;79.40;;;;;;5004351;28;20399;-74
2022/08/06 03:38:01;;;;;;;;;;;21.90;79.50;;;;;;4999271;28;19930;-76
2022/08/06 03:40:30;;;;;;;;;;;21.80;79.40;;;;;;5000418;28;20307;-75
2022/08/06 03:42:57;;;;;;;;;;;21.80;79.40;;;;;;5004953;28;20020;-77
2022/08/06 03:45:24;;;;;;;;;;;21.80;79.50;;;;;;5011828;28;19961;-75
2022/08/06 03:47:54;;;;;;;;;;;21.70;79.30;;;;;;5002114;28;19930;-76
2022/08/06 03:50:22;;;;;;;;;;;21.70;79.30;;;;;;4988088;28;19995;-76
2022/08/06 03:52:51;;;;;;;;;;;21.70;79.30;;;;;;4990787;28;19965;-76
2022/08/06 03:55:20;;;;;;;;;;;21.60;79.20;;;;;;5002594;28;19973;-75
2022/08/06 03:57:49;;;;;;;;;;;21.60;79.30;;;;;;5005670;28;20382;-75
2022/08/06 04:00:17;;;;;;;;;;;21.60;79.20;;;;;;4991690;28;20083;-76
2022/08/06 04:02:45;;;;;;;;;;;21.60;79.30;;;;;;5005522;28;20019;-75
2022/08/06 04:05:13;;;;;;;;;;;21.50;79.20;;;;;;5003195;28;19995;-77
2022/08/06 04:07:40;;;;;;;;;;;21.50;79.30;;;;;;5006620;28;19926;-77
2022/08/06 04:10:07;;;;;;;;;;;21.50;79.20;;;;;;5007754;28;20186;-75
2022/08/06 04:12:34;;;;;;;;;;;21.40;79.20;;;;;;4998830;28;19936;-76
2022/08/06 04:15:03;;;;;;;;;;;21.40;79.30;;;;;;4998589;28;19929;-75
2022/08/06 04:17:31;;;;;;;;;;;21.40;79.30;;;;;;4999254;28;19945;-77
2022/08/06 04:19:59;;;;;;;;;;;21.40;79.40;;;;;;4988655;28;19925;-75
2022/08/06 04:22:26;;;;;;;;;;;21.30;79.40;;;;;;4997722;28;20400;-75
2022/08/06 04:24:53;;;;;;;;;;;21.30;79.50;;;;;;4999484;28;20075;-77
2022/08/06 04:27:20;;;;;;;;;;;21.30;79.50;;;;;;4988355;28;19961;-77
2022/08/06 04:29:48;;;;;;;;;;;21.20;79.50;;;;;;5005922;28;20063;-75
2022/08/06 04:32:19;;;;;;;;;;;21.20;79.40;;;;;;5008130;28;19952;-75
2022/08/06 04:34:46;;;;;;;;;;;21.20;79.50;;;;;;5002407;28;19925;-76
2022/08/06 04:37:13;;;;;;;;;;;21.20;79.60;;;;;;4981966;28;19961;-75
2022/08/06 04:39:40;;;;;;;;;;;21.20;79.60;;;;;;5000616;28;19933;-75
2022/08/06 04:42:07;;;;;;;;;;;21.10;79.60;;;;;;5003683;28;19961;-77
2022/08/06 04:44:34;;;;;;;;;;;21.10;79.70;;;;;;4998464;28;19930;-75
2022/08/06 04:47:01;;;;;;;;;;;21.10;79.70;;;;;;4989152;28;19934;-76
2022/08/06 04:49:29;;;;;;;;;;;21.10;79.80;;;;;;4999368;28;20660;-75
2022/08/06 04:51:56;;;;;;;;;;;21.00;79.70;;;;;;5006194;28;19933;-77
2022/08/06 04:54:23;;;;;;;;;;;21.00;79.70;;;;;;5000208;28;20377;-75
2022/08/06 04:56:50;;;;;;;;;;;21.00;79.60;;;;;;5007113;28;19926;-75
2022/08/06 04:59:17;;;;;;;;;;;20.90;79.70;;;;;;5002685;28;19926;-74
2022/08/06 05:01:44;;;;;;;;;;;20.90;79.80;;;;;;5001296;28;19932;-75
2022/08/06 05:04:11;;;;;;;;;;;20.90;79.90;;;;;;4985808;28;20408;-74
2022/08/06 05:06:46;;;;;;;;;;;20.90;79.90;;;;;;5003689;28;19934;-74
2022/08/06 05:09:15;;;;;;;;;;;20.90;80.00;;;;;;4999998;28;19947;-76
2022/08/06 05:11:44;;;;;;;;;;;20.80;79.90;;;;;;4997897;28;19925;-75
2022/08/06 05:14:14;;;;;;;;;;;20.80;80.00;;;;;;5002604;28;20326;-75
2022/08/06 05:16:42;;;;;;;;;;;20.80;79.80;;;;;;5002846;28;19969;-75
2022/08/06 05:19:12;;;;;;;;;;;20.80;80.00;;;;;;4999374;28;20023;-77
2022/08/06 05:21:40;;;;;;;;;;;20.80;80.00;;;;;;4998083;28;20564;-76
2022/08/06 05:24:08;;;;;;;;;;;20.70;79.90;;;;;;5001953;28;20342;-74
2022/08/06 05:26:35;;;;;;;;;;;20.70;80.00;;;;;;5002942;28;19936;-75
2022/08/06 05:29:02;;;;;;;;;;;20.70;80.00;;;;;;4981875;28;19964;-75
2022/08/06 05:31:30;;;;;;;;;;;20.70;80.20;;;;;;4999494;28;20423;-74
2022/08/06 05:33:57;;;;;;;;;;;20.70;80.10;;;;;;4986976;28;19932;-76
2022/08/06 05:36:23;;;;;;;;;;;20.70;80.10;;;;;;4996727;28;20021;-76
2022/08/06 05:38:50;;;;;;;;;;;20.60;80.00;;;;;;4998597;28;19972;-76
2022/08/06 05:41:19;;;;;;;;;;;20.60;80.70;;;;;;5004135;28;19926;-75
2022/08/06 05:43:46;;;;;;;;;;;20.60;80.20;;;;;;5001192;28;19952;-76
2022/08/06 05:46:14;;;;;;;;;;;20.60;80.30;;;;;;4999332;28;19957;-75
2022/08/06 05:48:43;;;;;;;;;;;20.60;80.30;;;;;;5006261;28;19965;-74
2022/08/06 05:51:12;;;;;;;;;;;20.50;80.40;;;;;;5001618;28;19979;-75
2022/08/06 05:53:43;;;;;;;;;;;20.50;80.50;;;;;;5003635;28;20242;-76
2022/08/06 05:56:11;;;;;;;;;;;20.50;80.50;;;;;;4995121;28;20455;-76
2022/08/06 05:58:42;;;;;;;;;;;20.50;80.60;;;;;;5003159;28;19952;-76
2022/08/06 06:01:09;;;;;;;;;;;20.50;80.60;;;;;;4999370;28;19980;-76
2022/08/06 06:03:38;;;;;;;;;;;20.50;80.50;;;;;;4994090;28;19968;-76
2022/08/06 06:06:06;;;;;;;;;;;20.50;80.60;;;;;;4986068;28;20005;-75
2022/08/06 06:08:33;;;;;;;;;;;20.50;80.70;;;;;;5002289;28;20235;-77
2022/08/06 06:11:00;;;;;;;;;;;20.40;81.30;;;;;;4985263;28;19930;-75
2022/08/06 06:13:27;;;;;;;;;;;20.40;80.70;;;;;;5000545;28;19934;-75
2022/08/06 06:15:58;;;;;;;;;;;20.40;80.70;;;;;;4985168;28;19926;-75
2022/08/06 06:18:31;;;;;;;;;;;20.40;80.80;;;;;;5005092;28;19925;-75
2022/08/06 06:21:02;;;;;;;;;;;20.40;81.00;;;;;;4997406;28;20028;-76
2022/08/06 06:26:00;;;;;;;;;;;20.30;80.90;;;;;;5003752;28;20186;-76
2022/08/06 06:28:29;;;;;;;;;;;20.30;81.00;;;;;;5006119;28;20399;-75
2022/08/06 06:31:00;;;;;;;;;;;20.30;81.00;;;;;;5003667;28;19940;-75
2022/08/06 06:33:31;;;;;;;;;;;20.30;81.00;;;;;;5000440;28;19937;-76
2022/08/06 06:35:59;;;;;;;;;;;20.30;81.20;;;;;;4989348;28;19956;-75
2022/08/06 06:38:32;;;;;;;;;;;20.30;81.60;;;;;;4986536;28;19934;-77
2022/08/06 06:41:01;;;;;;;;;;;20.20;81.10;;;;;;4995464;28;19936;-78
2022/08/06 06:43:32;;;;;;;;;;;20.20;81.30;;;;;;4979969;28;20016;-77
2022/08/06 06:46:03;;;;;;;;;;;20.20;81.70;;;;;;5002935;28;20355;-77
2022/08/06 06:48:33;;;;;;;;;;;20.10;81.60;;;;;;5000165;28;19933;-77
2022/08/06 06:51:03;;;;;;;;;;;20.10;81.90;;;;;;4995634;28;19964;-78
2022/08/06 06:53:31;;;;;;;;;;;20.00;82.30;;;;;;4995795;28;20431;-77
2022/08/06 06:55:59;;;;;;;;;;;20.00;82.50;;;;;;4997216;28;19933;-76
2022/08/06 06:58:28;;;;;;;;;;;20.00;82.60;;;;;;5000154;28;19929;-77
2022/08/06 07:00:56;;;;;;;;;;;19.90;82.70;;;;;;5001791;28;20015;-78
2022/08/06 07:03:27;;;;;;;;;;;19.90;82.60;;;;;;4982831;28;20367;-78
2022/08/06 07:05:55;;;;;;;;;;;19.90;82.50;;;;;;4995712;28;19933;-77
2022/08/06 07:08:23;;;;;;;;;;;19.90;82.40;;;;;;4994769;28;19968;-76
2022/08/06 07:10:51;;;;;;;;;;;19.90;82.40;;;;;;4988902;28;19941;-77
2022/08/06 07:13:19;;;;;;;;;;;19.80;82.20;;;;;;5003028;28;20328;-76
2022/08/06 07:15:46;;;;;;;;;;;19.80;82.10;;;;;;4988765;28;19996;-76
2022/08/06 07:18:14;;;;;;;;;;;19.80;82.10;;;;;;4999898;28;19972;-76
2022/08/06 07:20:43;;;;;;;;;;;19.80;82.20;;;;;;5003116;28;19929;-76
2022/08/06 07:23:10;;;;;;;;;;;19.80;82.10;;;;;;5007828;28;19930;-76
2022/08/06 07:25:40;;;;;;;;;;;19.80;82.10;;;;;;4980451;28;19948;-78
2022/08/06 07:28:07;;;;;;;;;;;19.80;82.00;;;;;;5004771;28;19926;-76
2022/08/06 07:30:35;;;;;;;;;;;19.80;82.00;;;;;;5006432;28;19961;-76
2022/08/06 07:33:03;;;;;;;;;;;19.80;82.10;;;;;;4994655;28;20024;-77
2022/08/06 07:35:31;;;;;;;;;;;19.80;82.20;;;;;;4999663;28;20323;-78
2022/08/06 07:38:01;;;;;;;;;;;19.80;82.10;;;;;;5005361;28;19976;-77
2022/08/06 07:45:46;;;;;;;;;;;19.70;81.90;;;;;;5303148;23;20957;-79
2022/08/06 07:53:30;;;;;;;;;;;19.70;81.90;;;;;;5059275;23;20032;-74
2022/08/06 07:55:59;;;;;;;;;;;19.70;82.00;;;;;;5041185;23;19934;-74
2022/08/06 07:58:26;;;;;;;;;;;19.70;82.10;;;;;;4965039;28;19934;-77
2022/08/06 08:00:53;;;;;;;;;;;19.60;82.10;;;;;;4965446;28;20021;-74
2022/08/06 08:06:22;;;;;;;;;;;19.60;82.40;;;;;;4970729;28;20370;-74
2022/08/06 08:08:54;;;;;;;;;;;19.60;82.30;;;;;;4956010;28;19934;-74
2022/08/06 08:11:23;;;;;;;;;;;19.60;82.40;;;;;;4952056;28;19934;-76
2022/08/06 08:13:51;;;;;;;;;;;19.60;82.60;;;;;;4953600;28;19945;-75
2022/08/06 08:16:18;;;;;;;;;;;19.60;82.50;;;;;;4971488;28;20379;-74
2022/08/06 08:18:45;;;;;;;;;;;19.60;82.70;;;;;;4954063;28;20251;-77
2022/08/06 08:21:13;;;;;;;;;;;19.60;82.50;;;;;;4945645;28;19935;-75
2022/08/06 08:23:41;;;;;;;;;;;19.60;82.60;;;;;;4948923;28;20334;-74
2022/08/06 08:26:09;;;;;;;;;;;19.60;82.70;;;;;;4948276;28;20436;-76
2022/08/06 08:28:36;;;;;;;;;;;19.60;82.80;;;;;;4951862;28;19934;-76
2022/08/06 08:31:05;;;;;;;;;;;19.60;83.10;;;;;;4951882;28;20519;-77
2022/08/06 08:33:33;;;;;;;;;;;19.60;83.20;;;;;;4950340;28;20451;-77
2022/08/06 08:36:00;;;;;;;;;;;19.60;83.40;;;;;;4953339;28;19926;-77
2022/08/06 08:38:27;;;;;;;;;;;19.60;83.40;;;;;;4950622;28;20100;-78
2022/08/06 08:40:55;;;;;;;;;;;19.60;83.30;;;;;;4948637;28;20000;-78
2022/08/06 08:43:24;;;;;;;;;;;19.50;83.10;;;;;;4958408;28;19934;-77
2022/08/06 08:45:51;;;;;;;;;;;19.50;83.10;;;;;;4955299;28;19958;-78
2022/08/06 08:48:19;;;;;;;;;;;19.50;83.30;;;;;;4970807;28;19934;-77
2022/08/06 08:50:46;;;;;;;;;;;19.50;83.40;;;;;;4952748;28;20393;-77
2022/08/06 08:53:14;;;;;;;;;;;19.50;83.50;;;;;;4955761;28;19927;-78
2022/08/06 08:55:41;;;;;;;;;;;19.50;83.50;;;;;;4952616;28;19926;-77
2022/08/06 08:58:12;;;;;;;;;;;19.50;83.50;;;;;;4956755;28;19970;-78
2022/08/06 09:00:40;;;;;;;;;;;19.50;83.10;;;;;;4954667;28;19961;-78
2022/08/06 09:03:08;;;;;;;;;;;19.50;83.00;;;;;;4949318;28;19989;-77
2022/08/06 09:05:35;;;;;;;;;;;19.40;82.90;;;;;;4954158;28;19926;-78
2022/08/06 09:08:02;;;;;;;;;;;19.50;83.00;;;;;;4953547;28;19934;-77
2022/08/06 09:10:30;;;;;;;;;;;19.40;82.90;;;;;;4954589;28;19926;-78
2022/08/06 09:12:57;;;;;;;;;;;19.50;83.00;;;;;;4946422;28;20415;-77
2022/08/06 09:15:24;;;;;;;;;;;19.40;82.80;;;;;;4953752;28;20028;-77
2022/08/06 09:17:52;;;;;;;;;;;19.40;82.70;;;;;;4955683;28;19934;-78
2022/08/06 09:20:19;;;;;;;;;;;19.40;82.70;;;;;;4951664;28;20447;-78
2022/08/06 09:22:50;;;;;;;;;;;19.40;82.60;;;;;;4945944;28;19930;-78
2022/08/06 09:25:41;;;;;;;;;;;19.40;82.60;;;;;;4961198;28;20020;-77
2022/08/06 09:28:11;;;;;;;;;;;19.40;82.70;;;;;;4950940;28;19945;-78
2022/08/06 09:30:39;;;;;;;;;;;19.40;82.80;;;;;;4956854;28;19977;-77
2022/08/06 09:33:12;;;;;;;;;;;19.40;82.90;;;;;;4960521;28;20388;-78
2022/08/06 09:35:39;;;;;;;;;;;19.40;83.00;;;;;;4956403;28;20508;-78
2022/08/06 09:38:08;;;;;;;;;;;19.40;83.00;;;;;;4957763;28;20571;-78
2022/08/06 09:40:37;;;;;;;;;;;19.40;82.90;;;;;;4950185;28;19933;-78
2022/08/06 09:43:04;;;;;;;;;;;19.40;82.90;;;;;;4952507;28;20286;-78
2022/08/06 09:45:31;;;;;;;;;;;19.40;82.90;;;;;;4957960;28;19930;-77
2022/08/06 09:48:01;;;;;;;;;;;19.40;82.90;;;;;;4952754;28;19997;-77
2022/08/06 09:50:42;;;;;;;;;;;19.40;83.00;;;;;;4952476;28;20037;-78
2022/08/06 09:53:10;;;;;;;;;;;19.50;83.30;;;;;;4947744;28;20370;-78
2022/08/06 09:55:37;;;;;;;;;;;19.50;83.10;;;;;;4955601;28;20345;-78
2022/08/06 09:58:03;;;;;;;;;;;19.50;83.30;;;;;;4950082;28;19934;-78
2022/08/06 10:00:32;;;;;;;;;;;19.50;83.20;;;;;;4942233;28;20212;-78
2022/08/06 10:02:59;;;;;;;;;;;19.50;83.60;;;;;;4947450;28;19930;-78
2022/08/06 10:05:26;;;;;;;;;;;19.50;83.70;;;;;;4943320;28;19955;-77
2022/08/06 10:08:04;;;;;;;;;;;19.50;83.70;;;;;;4952552;28;20017;-78
2022/08/06 10:10:57;;;;;;;;;;;19.50;84.10;;;;;;4953783;28;20094;-76
2022/08/06 10:13:27;;;;;;;;;;;19.50;83.30;;;;;;4935745;28;20307;-80
2022/08/06 10:15:56;;;;;;;;;;;19.50;83.30;;;;;;4956470;28;19939;-78
2022/08/06 10:18:34;;;;;;;;;;;19.60;83.50;;;;;;4958636;28;19933;-77
2022/08/06 10:21:01;;;;;;;;;;;19.60;83.20;;;;;;4949854;28;19934;-78
2022/08/06 10:23:30;;;;;;;;;;;19.60;83.20;;;;;;4953071;28;19934;-76
2022/08/06 10:25:57;;;;;;;;;;;19.70;83.20;;;;;;4954276;28;19973;-77
2022/08/06 10:28:24;;;;;;;;;;;19.60;83.20;;;;;;4961491;28;19937;-78
2022/08/06 10:30:51;;;;;;;;;;;19.70;83.20;;;;;;4953325;28;19936;-77
2022/08/06 10:33:19;;;;;;;;;;;19.70;82.80;;;;;;4950907;28;19934;-77
2022/08/06 10:35:47;;;;;;;;;;;19.70;82.80;;;;;;4954691;28;20325;-80
2022/08/06 10:38:15;;;;;;;;;;;19.70;82.90;;;;;;4976411;28;19938;-79
2022/08/06 10:40:44;;;;;;;;;;;19.70;82.90;;;;;;4955295;28;19930;-81
2022/08/06 10:43:12;;;;;;;;;;;19.70;82.60;;;;;;4959596;28;19934;-78
2022/08/06 10:45:39;;;;;;;;;;;19.70;82.70;;;;;;4962830;28;20429;-81
2022/08/06 10:48:07;;;;;;;;;;;19.70;82.70;;;;;;4959969;28;19931;-81
2022/08/06 10:50:34;;;;;;;;;;;19.80;82.80;;;;;;4958739;28;20432;-77
2022/08/06 10:53:05;;;;;;;;;;;19.80;83.10;;;;;;4965054;28;19980;-81
2022/08/06 10:55:33;;;;;;;;;;;19.80;83.80;;;;;;4968810;28;20685;-81
2022/08/06 10:58:02;;;;;;;;;;;20.00;84.70;;;;;;4978653;28;19926;-81
2022/08/06 11:00:32;;;;;;;;;;;20.00;84.10;;;;;;4975664;28;19935;-83
2022/08/06 11:03:12;;;;;;;;;;;20.10;85.50;;;;;;4979788;28;19930;-77
2022/08/06 11:05:40;;;;;;;;;;;20.30;85.40;;;;;;4956219;28;20024;-80
2022/08/06 11:08:16;;;;;;;;;;;20.30;84.10;;;;;;4961190;28;19926;-78
2022/08/06 11:10:53;;;;;;;;;;;20.40;84.50;;;;;;4960700;28;20415;-77
2022/08/06 11:13:26;;;;;;;;;;;20.40;84.10;;;;;;4960273;28;19934;-80
2022/08/06 11:15:54;;;;;;;;;;;20.40;83.60;;;;;;4955107;28;19926;-80
2022/08/06 11:18:21;;;;;;;;;;;20.40;82.80;;;;;;4957091;28;19976;-79
2022/08/06 11:20:49;;;;;;;;;;;20.40;83.20;;;;;;4957812;28;19935;-79
2022/08/06 11:23:26;;;;;;;;;;;20.40;83.50;;;;;;4958317;28;20961;-77
2022/08/06 11:25:54;;;;;;;;;;;20.50;84.70;;;;;;4956695;28;19927;-80
2022/08/06 11:28:42;;;;;;;;;;;20.50;84.60;;;;;;5239721;23;19997;-79
2022/08/06 11:31:29;;;;;;;;;;;20.60;84.50;;;;;;4936626;28;19941;-80
2022/08/06 11:34:01;;;;;;;;;;;20.60;84.10;;;;;;4939069;28;19931;-80
2022/08/06 11:36:28;;;;;;;;;;;20.60;83.70;;;;;;4922107;29;19935;-80
2022/08/06 11:38:59;;;;;;;;;;;20.60;83.50;;;;;;4920020;29;19935;-81
2022/08/06 11:41:27;;;;;;;;;;;20.70;84.10;;;;;;4921817;29;20503;-79
2022/08/06 11:44:07;;;;;;;;;;;20.70;83.00;;;;;;4919248;29;19966;-78
2022/08/06 11:46:36;;;;;;;;;;;20.60;82.80;;;;;;4924941;29;19934;-79
2022/08/06 11:49:21;;;;;;;;;;;20.70;83.10;;;;;;4921047;29;19935;-80
2022/08/06 11:51:49;;;;;;;;;;;20.70;83.00;;;;;;4923286;29;20026;-80
2022/08/06 11:54:17;;;;;;;;;;;20.70;83.20;;;;;;4936713;28;19934;-79
2022/08/06 11:57:02;;;;;;;;;;;20.80;82.70;;;;;;4923679;29;20017;-78
2022/08/06 11:59:30;;;;;;;;;;;20.80;83.40;;;;;;4924201;29;19931;-79
2022/08/06 12:01:59;;;;;;;;;;;20.90;83.20;;;;;;4923916;29;20424;-80
2022/08/06 12:04:42;;;;;;;;;;;20.90;82.70;;;;;;4922655;29;21241;-80
2022/08/06 12:07:16;;;;;;;;;;;20.90;80.40;;;;;;4927139;29;19941;-80
2022/08/06 12:09:43;;;;;;;;;;;20.90;81.90;;;;;;4921255;29;20013;-78
2022/08/06 12:12:29;;;;;;;;;;;20.90;81.70;;;;;;4923381;29;19933;-77
2022/08/06 12:14:56;;;;;;;;;;;21.00;81.50;;;;;;4913538;29;19928;-81
2022/08/06 12:17:27;;;;;;;;;;;21.00;81.70;;;;;;4919414;29;20416;-78
2022/08/06 12:19:57;;;;;;;;;;;21.00;81.80;;;;;;4924633;29;20017;-78
2022/08/06 12:22:24;;;;;;;;;;;21.00;81.60;;;;;;4916861;29;19931;-78
2022/08/06 12:24:53;;;;;;;;;;;21.00;82.00;;;;;;4917602;29;19930;-78
2022/08/06 12:27:21;;;;;;;;;;;21.00;82.10;;;;;;4928130;29;19938;-79
2022/08/06 12:29:48;;;;;;;;;;;21.00;81.60;;;;;;4919920;29;20724;-79
2022/08/06 12:32:22;;;;;;;;;;;21.10;82.10;;;;;;4923826;29;19935;-78
2022/08/06 12:34:51;;;;;;;;;;;21.10;81.90;;;;;;4920406;29;19927;-79
2022/08/06 12:37:18;;;;;;;;;;;21.10;82.40;;;;;;4920469;29;20006;-78
2022/08/06 12:42:29;;;;;;;;;;;21.10;82.00;;;;;;4919256;29;19923;-78
2022/08/06 12:44:56;;;;;;;;;;;21.10;81.10;;;;;;4917158;29;19958;-78
2022/08/06 12:47:25;;;;;;;;;;;21.20;81.10;;;;;;4915393;29;19935;-77
2022/08/06 12:49:53;;;;;;;;;;;21.20;81.20;;;;;;4924333;29;19933;-79
2022/08/06 12:52:21;;;;;;;;;;;21.20;81.70;;;;;;4926062;29;20480;-80
2022/08/06 12:54:48;;;;;;;;;;;21.30;82.50;;;;;;4917229;29;20029;-78
2022/08/06 12:57:21;;;;;;;;;;;21.30;82.00;;;;;;4923704;29;20515;-78
2022/08/06 12:59:49;;;;;;;;;;;21.30;82.40;;;;;;4915046;29;20302;-80
2022/08/06 13:02:17;;;;;;;;;;;21.40;82.20;;;;;;4905515;29;19957;-77
2022/08/06 13:04:46;;;;;;;;;;;21.40;82.50;;;;;;4918178;29;19914;-77
2022/08/06 13:07:14;;;;;;;;;;;21.40;81.90;;;;;;4915694;29;20021;-80
2022/08/06 13:09:42;;;;;;;;;;;21.40;81.50;;;;;;4920703;29;19958;-77
2022/08/06 13:12:13;;;;;;;;;;;21.40;81.40;;;;;;4917571;29;19974;-80
2022/08/06 13:14:48;;;;;;;;;;;21.40;81.20;;;;;;4914861;29;19966;-79
2022/08/06 13:17:15;;;;;;;;;;;21.40;80.60;;;;;;4920127;29;19930;-78
2022/08/06 13:19:51;;;;;;;;;;;21.30;79.80;;;;;;4910518;29;21111;-78
2022/08/06 13:22:19;;;;;;;;;;;21.30;78.10;;;;;;4920851;29;19927;-78
2022/08/06 13:24:46;;;;;;;;;;;21.20;76.90;;;;;;4920473;29;19942;-79
2022/08/06 13:27:14;;;;;;;;;;;21.10;77.60;;;;;;4915207;29;19926;-79
2022/08/06 13:29:56;;;;;;;;;;;21.20;78.10;;;;;;4924983;28;19962;-78
2022/08/06 13:32:24;;;;;;;;;;;21.20;78.00;;;;;;4913476;29;20018;-78
2022/08/06 13:34:53;;;;;;;;;;;21.30;78.20;;;;;;4921060;29;19927;-78
2022/08/06 13:37:36;;;;;;;;;;;21.20;76.60;;;;;;4919580;29;20350;-78
2022/08/06 13:40:05;;;;;;;;;;;21.20;78.50;;;;;;4920188;29;19935;-78
2022/08/06 13:42:32;;;;;;;;;;;21.30;79.00;;;;;;4922696;29;20464;-78
2022/08/06 13:44:59;;;;;;;;;;;21.30;79.20;;;;;;4915497;29;19935;-78
2022/08/06 13:47:27;;;;;;;;;;;21.30;78.70;;;;;;4918335;29;19926;-77
2022/08/06 13:49:55;;;;;;;;;;;21.30;79.30;;;;;;4918438;29;20009;-78
2022/08/06 13:52:22;;;;;;;;;;;21.30;79.20;;;;;;4921250;29;19927;-79
2022/08/06 13:54:48;;;;;;;;;;;21.40;79.60;;;;;;4920570;29;19934;-79
2022/08/06 13:57:18;;;;;;;;;;;21.30;78.90;;;;;;4917569;29;19926;-78
2022/08/06 13:59:45;;;;;;;;;;;21.40;79.30;;;;;;4921316;29;19938;-78
2022/08/06 14:02:12;;;;;;;;;;;21.30;79.20;;;;;;4919540;29;19938;-78
2022/08/06 14:04:40;;;;;;;;;;;21.50;79.40;;;;;;4909432;29;19927;-77
2022/08/06 14:07:07;;;;;;;;;;;21.50;78.90;;;;;;4919979;29;19974;-77
2022/08/06 14:09:34;;;;;;;;;;;21.60;78.60;;;;;;4917573;29;20406;-79
2022/08/06 14:12:02;;;;;;;;;;;21.60;78.80;;;;;;4912878;29;19931;-77
2022/08/06 14:14:30;;;;;;;;;;;21.70;79.70;;;;;;4914965;29;20286;-79
2022/08/06 14:16:58;;;;;;;;;;;21.80;79.60;;;;;;4914213;29;20010;-78
2022/08/06 14:19:25;;;;;;;;;;;21.80;79.30;;;;;;4912186;29;20021;-78
2022/08/06 14:21:52;;;;;;;;;;;22.00;78.70;;;;;;4906576;29;19978;-77
2022/08/06 14:24:19;;;;;;;;;;;21.90;78.40;;;;;;4911755;29;19931;-77
2022/08/06 14:26:46;;;;;;;;;;;21.90;76.80;;;;;;4911198;28;19930;-76
2022/08/06 14:29:13;;;;;;;;;;;21.70;76.90;;;;;;4913918;29;19949;-77
2022/08/06 14:31:41;;;;;;;;;;;21.70;77.30;;;;;;4906954;29;19961;-77
2022/08/06 14:34:08;;;;;;;;;;;21.60;77.90;;;;;;4912499;29;19938;-75
2022/08/06 14:36:35;;;;;;;;;;;21.70;78.40;;;;;;4904103;29;19938;-77
2022/08/06 14:39:01;;;;;;;;;;;21.80;78.10;;;;;;4910029;29;21804;-76
2022/08/06 14:46:58;;;;;;;;;;;21.90;77.60;;;;;;4909302;29;20386;-75
2022/08/06 14:49:25;;;;;;;;;;;21.90;77.90;;;;;;4909489;29;19943;-76
2022/08/06 14:51:52;;;;;;;;;;;22.00;77.90;;;;;;4921097;29;20021;-75
2022/08/06 14:54:20;;;;;;;;;;;22.00;77.70;;;;;;4917645;29;19931;-76